Terminal Aerodrome Forecast
Issued by NWS

Home | Current Version | Previous Version | Text Only | Print | Product List | Glossary On
Versions: 1 2 3 4 5 6 7 8 9 10 11 12 13 14 15 16 17 18 19 20 21
455
FTUS43 KSGF 261732
TAFBBG
TAF
KBBG 261732Z 2618/2718 14007KT 6SM -RA BKN050 OVC090
      TEMPO 2618/2622 BKN025
     FM270200 VRB03KT P6SM SCT060
     FM270800 VRB03KT 4SM BR BKN015
     FM271000 11004KT 2SM BR OVC007
     FM271500 13006KT 5SM BR OVC010=

USA.gov is the U.S. government's official web portal to all federal, state and local government web resources and services.